WXM80 ListenWXM80 Stop

You find our weather info also at:

UK Metoffice

WeatherCloud

Weather Underground

Northeastern Weather Network

AWEKAS

Citizen Weather Observer Program (CWOP)

HAMweather, WeatherForYou, PWS Weather


Weather Underground History page Text

Daily Summary for December 15, 2016 Units:  English    Metric   Both
« Previous Day
Next Day »
Daily Weekly Monthly Yearly Custom
  High: Low: Average:
Temperature: 34.7 °F 21.3 °F 26.4 °F
Dew Point: 19.0 °F 0.0 °F 8.5 °F
Humidity: 82 % 37 % 47 %
Wind Speed: 17.0 mph 0.0 mph 9.3 mph
Wind Gust: 34.5 mph - -
Wind:- - West
Pressure: 30.11 in 29.72 in -
Precipitation: 0.00 in    
Historical Graphs
 
 
Tabular Data for December 15, 2016
Time Temperature Dew Point Pressure Wind Wind Speed Wind Gust Humidity Rainfall Rate (Hourly)
00:04 30.5 °F 16.2 °F 29.84 in SSW 1.4 mph 3.5 mph 55 % 0.00 in
00:09 30.5 °F 16.2 °F 29.84 in SW 1.8 mph 4.6 mph 55 % 0.00 in
00:14 30.5 °F 16.2 °F 29.84 in WSW 2.3 mph 4.6 mph 55 % 0.00 in
00:19 30.5 °F 15.8 °F 29.84 in SW 2.0 mph 5.0 mph 54 % 0.00 in
00:24 30.7 °F 15.6 °F 29.84 in SW 3.0 mph 6.0 mph 53 % 0.00 in
00:29 30.9 °F 15.8 °F 29.84 in SW 3.0 mph 6.0 mph 53 % 0.00 in
00:34 31.2 °F 15.6 °F 29.84 in SW 2.0 mph 9.0 mph 52 % 0.00 in
00:39 31.5 °F 14.9 °F 29.83 in SW 2.0 mph 8.0 mph 50 % 0.00 in
00:44 31.9 °F 14.9 °F 29.83 in SW 3.0 mph 12.0 mph 49 % 0.00 in
00:49 32.4 °F 15.3 °F 29.83 in SW 3.0 mph 10.0 mph 49 % 0.00 in
00:54 32.7 °F 14.7 °F 29.83 in WSW 6.0 mph 14.0 mph 47 % 0.00 in
00:59 33.2 °F 14.1 °F 29.82 in SW 6.3 mph 12.0 mph 45 % 0.00 in
01:05 33.6 °F 15.5 °F 29.82 in WSW 6.2 mph 11.5 mph 47 % 0.00 in
01:10 33.9 °F 15.8 °F 29.82 in SW 4.1 mph 8.1 mph 47 % 0.00 in
01:15 34.0 °F 14.9 °F 29.82 in SW 3.0 mph 11.5 mph 45 % 0.00 in
01:20 34.1 °F 14.9 °F 29.82 in West 4.1 mph 6.9 mph 45 % 0.00 in
01:25 34.1 °F 15.5 °F 29.82 in WSW 6.3 mph 9.2 mph 46 % 0.00 in
01:30 34.2 °F 15.5 °F 29.82 in West 2.7 mph 4.6 mph 46 % 0.00 in
01:35 34.2 °F 15.0 °F 29.81 in West 4.4 mph 10.4 mph 45 % 0.00 in
01:40 34.2 °F 15.0 °F 29.81 in WSW 6.1 mph 11.0 mph 45 % 0.00 in
01:45 34.2 °F 15.0 °F 29.81 in West 3.5 mph 7.0 mph 45 % 0.00 in
01:50 34.2 °F 14.5 °F 29.81 in SW 5.0 mph 11.5 mph 44 % 0.00 in
01:55 34.2 °F 15.5 °F 29.80 in WSW 4.3 mph 6.9 mph 46 % 0.00 in
02:01 34.2 °F 15.5 °F 29.80 in WSW 9.2 mph 11.5 mph 46 % 0.00 in
02:06 34.3 °F 16.1 °F 29.80 in WNW 3.6 mph 5.8 mph 47 % 0.00 in
02:11 34.3 °F 16.1 °F 29.80 in SSW 8.1 mph 15.0 mph 47 % 0.00 in
02:16 34.3 °F 16.1 °F 29.79 in WSW 7.6 mph 11.5 mph 47 % 0.00 in
02:21 34.4 °F 16.7 °F 29.79 in West 9.5 mph 12.7 mph 48 % 0.00 in
02:26 34.5 °F 16.3 °F 29.79 in SW 7.9 mph 12.0 mph 47 % 0.00 in
02:31 34.5 °F 15.8 °F 29.78 in SW 7.0 mph 9.2 mph 46 % 0.00 in
02:36 34.6 °F 15.9 °F 29.78 in WSW 9.3 mph 19.6 mph 46 % 0.00 in
02:41 34.6 °F 15.9 °F 29.78 in West 9.6 mph 12.7 mph 46 % 0.00 in
02:46 34.7 °F 17.0 °F 29.78 in West 8.8 mph 16.1 mph 48 % 0.00 in
02:52 34.7 °F 16.0 °F 29.77 in WSW 10.4 mph 21.0 mph 46 % 0.00 in
02:57 34.7 °F 16.5 °F 29.77 in SW 6.1 mph 10.4 mph 47 % 0.00 in
03:02 34.6 °F 16.4 °F 29.77 in SW 8.3 mph 16.0 mph 47 % 0.00 in
03:07 34.5 °F 16.8 °F 29.76 in West 7.0 mph 11.5 mph 48 % 0.00 in
03:12 34.3 °F 16.6 °F 29.76 in WSW 6.9 mph 16.0 mph 48 % 0.00 in
03:17 34.2 °F 15.5 °F 29.76 in WSW 11.2 mph 16.1 mph 46 % 0.00 in
03:22 34.2 °F 16.5 °F 29.76 in WSW 4.6 mph 11.5 mph 48 % 0.00 in
03:27 34.1 °F 16.4 °F 29.75 in WSW 7.9 mph 12.0 mph 48 % 0.00 in
03:32 34.1 °F 16.4 °F 29.75 in WSW 8.1 mph 9.2 mph 48 % 0.00 in
03:37 34.0 °F 16.3 °F 29.75 in West 9.5 mph 12.0 mph 48 % 0.00 in
03:43 34.0 °F 16.3 °F 29.75 in West 3.2 mph 5.8 mph 48 % 0.00 in
03:48 34.0 °F 15.9 °F 29.74 in WSW 10.2 mph 16.0 mph 47 % 0.00 in
03:53 34.0 °F 15.9 °F 29.74 in SW 11.7 mph 19.6 mph 47 % 0.00 in
03:58 33.9 °F 15.8 °F 29.74 in SSW 5.7 mph 11.5 mph 47 % 0.00 in
04:03 33.9 °F 15.8 °F 29.74 in SW 6.8 mph 12.7 mph 47 % 0.00 in
04:08 33.9 °F 15.3 °F 29.74 in WSW 9.4 mph 16.1 mph 46 % 0.00 in
04:13 33.8 °F 15.2 °F 29.73 in WSW 7.7 mph 15.0 mph 46 % 0.00 in
04:18 33.7 °F 14.6 °F 29.73 in SW 7.1 mph 19.6 mph 45 % 0.00 in
04:23 33.6 °F 14.0 °F 29.74 in SSW 12.0 mph 19.0 mph 44 % 0.00 in
04:28 33.5 °F 14.9 °F 29.73 in WSW 7.4 mph 17.3 mph 46 % 0.00 in
04:34 33.4 °F 15.8 °F 29.72 in West 5.9 mph 9.2 mph 48 % 0.00 in
04:39 33.3 °F 15.2 °F 29.72 in WNW 11.1 mph 18.4 mph 47 % 0.00 in
04:44 33.2 °F 14.6 °F 29.72 in West 12.2 mph 21.9 mph 46 % 0.00 in
04:49 33.1 °F 13.5 °F 29.72 in NNW 9.1 mph 17.3 mph 44 % 0.00 in
04:54 33.0 °F 12.4 °F 29.72 in West 11.2 mph 20.7 mph 42 % 0.00 in
04:59 32.8 °F 13.2 °F 29.72 in WSW 10.5 mph 21.0 mph 44 % 0.00 in
05:04 32.6 °F 12.5 °F 29.72 in West 11.6 mph 18.4 mph 43 % 0.00 in
05:09 32.5 °F 11.4 °F 29.72 in West 14.1 mph 26.5 mph 41 % 0.00 in
05:14 32.4 °F 11.8 °F 29.72 in WSW 11.6 mph 21.9 mph 42 % 0.00 in
05:19 32.2 °F 12.7 °F 29.72 in WSW 8.0 mph 20.0 mph 44 % 0.00 in
05:24 32.1 °F 13.1 °F 29.72 in WNW 10.7 mph 19.6 mph 45 % 0.00 in
05:29 31.9 °F 12.9 °F 29.72 in West 8.0 mph 15.0 mph 45 % 0.00 in
05:34 31.7 °F 13.3 °F 29.72 in West 7.0 mph 16.0 mph 46 % 0.00 in
05:39 31.6 °F 14.1 °F 29.73 in West 10.0 mph 18.0 mph 48 % 0.00 in
05:44 31.5 °F 13.6 °F 29.72 in WNW 10.0 mph 18.0 mph 47 % 0.00 in
05:49 31.3 °F 11.9 °F 29.73 in WNW 12.0 mph 23.0 mph 44 % 0.00 in
05:54 31.1 °F 12.7 °F 29.73 in WNW 7.0 mph 20.0 mph 46 % 0.00 in
06:00 31.0 °F 13.1 °F 29.73 in NW 3.0 mph 13.8 mph 47 % 0.00 in
06:05 30.8 °F 12.4 °F 29.74 in West 5.8 mph 11.5 mph 46 % 0.00 in
06:10 30.6 °F 11.2 °F 29.74 in West 10.6 mph 18.4 mph 44 % 0.00 in
06:15 30.4 °F 10.0 °F 29.74 in WNW 8.5 mph 19.6 mph 42 % 0.00 in
06:20 30.2 °F 9.8 °F 29.74 in WSW 6.9 mph 17.3 mph 42 % 0.00 in
06:25 30.1 °F 11.3 °F 29.75 in NW 8.4 mph 12.0 mph 45 % 0.00 in
06:30 29.9 °F 11.6 °F 29.75 in West 6.2 mph 11.5 mph 46 % 0.00 in
06:35 29.9 °F 12.1 °F 29.75 in WSW 9.7 mph 11.5 mph 47 % 0.00 in
06:40 29.9 °F 13.9 °F 29.76 in WSW 5.1 mph 11.5 mph 51 % 0.00 in
06:45 29.7 °F 12.8 °F 29.76 in West 8.4 mph 16.1 mph 49 % 0.00 in
06:50 29.6 °F 12.3 °F 29.76 in SW 9.4 mph 16.1 mph 48 % 0.00 in
06:55 29.4 °F 11.6 °F 29.76 in WNW 6.4 mph 10.0 mph 47 % 0.00 in
07:01 29.1 °F 11.4 °F 29.77 in WSW 11.1 mph 15.0 mph 47 % 0.00 in
07:06 28.9 °F 11.6 °F 29.77 in West 5.7 mph 16.1 mph 48 % 0.00 in
07:11 28.7 °F 11.9 °F 29.77 in SW 8.8 mph 18.4 mph 49 % 0.00 in
07:16 28.6 °F 11.4 °F 29.77 in WNW 11.5 mph 18.4 mph 48 % 0.00 in
07:21 28.4 °F 10.7 °F 29.77 in West 7.9 mph 20.0 mph 47 % 0.00 in
07:26 28.2 °F 11.0 °F 29.77 in WSW 10.3 mph 17.3 mph 48 % 0.00 in
07:31 28.0 °F 10.8 °F 29.77 in SW 11.9 mph 14.0 mph 48 % 0.00 in
07:36 27.9 °F 10.7 °F 29.78 in West 8.3 mph 11.5 mph 48 % 0.00 in
07:41 27.8 °F 10.6 °F 29.78 in WNW 8.3 mph 10.4 mph 48 % 0.00 in
07:46 27.8 °F 11.1 °F 29.78 in West 8.9 mph 13.8 mph 49 % 0.00 in
07:52 27.8 °F 11.1 °F 29.78 in NW 7.6 mph 17.3 mph 49 % 0.00 in
07:57 27.8 °F 11.5 °F 29.78 in WNW 10.8 mph 15.0 mph 50 % 0.00 in
08:02 27.8 °F 11.5 °F 29.79 in WSW 10.9 mph 17.3 mph 50 % 0.00 in
08:07 27.8 °F 10.6 °F 29.79 in WNW 9.6 mph 17.3 mph 48 % 0.00 in
08:12 27.7 °F 11.9 °F 29.79 in NW 5.3 mph 13.8 mph 51 % 0.00 in
08:17 27.6 °F 11.4 °F 29.80 in NW 6.5 mph 16.0 mph 50 % 0.00 in
08:22 27.5 °F 11.3 °F 29.80 in West 10.0 mph 17.0 mph 50 % 0.00 in
08:27 27.4 °F 11.2 °F 29.80 in WSW 7.9 mph 11.5 mph 50 % 0.00 in
08:32 27.4 °F 12.1 °F 29.80 in WNW 10.2 mph 15.0 mph 52 % 0.00 in
08:37 27.3 °F 12.8 °F 29.80 in NW 7.5 mph 18.4 mph 54 % 0.00 in
08:42 27.2 °F 13.1 °F 29.80 in West 4.0 mph 16.1 mph 55 % 0.00 in
08:48 27.1 °F 13.1 °F 29.81 in SW 7.6 mph 13.8 mph 55 % 0.00 in
08:53 27.1 °F 12.2 °F 29.81 in WNW 7.6 mph 13.0 mph 53 % 0.00 in
08:58 27.1 °F 11.3 °F 29.81 in WNW 8.8 mph 18.4 mph 51 % 0.00 in
09:03 27.1 °F 11.3 °F 29.81 in WNW 6.5 mph 10.0 mph 51 % 0.00 in
09:08 27.0 °F 10.8 °F 29.81 in NW 8.6 mph 16.1 mph 50 % 0.00 in
09:13 26.9 °F 11.2 °F 29.81 in NW 8.4 mph 16.0 mph 51 % 0.00 in
09:18 27.0 °F 11.3 °F 29.82 in NW 9.2 mph 19.6 mph 51 % 0.00 in
09:23 26.9 °F 11.2 °F 29.82 in North 7.1 mph 17.3 mph 51 % 0.00 in
09:28 26.8 °F 10.6 °F 29.83 in NW 14.0 mph 19.6 mph 50 % 0.00 in
09:33 26.7 °F 16.9 °F 29.83 in NW 14.3 mph 19.6 mph 66 % 0.00 in
09:39 25.7 °F 18.6 °F 29.84 in NW 13.6 mph 21.9 mph 74 % 0.00 in
09:44 24.5 °F 18.6 °F 29.84 in WNW 8.5 mph 17.3 mph 78 % 0.00 in
09:49 23.9 °F 18.9 °F 29.85 in NNW 9.8 mph 20.7 mph 81 % 0.00 in
09:54 23.7 °F 19.0 °F 29.85 in NW 16.3 mph 34.5 mph 82 % 0.00 in
09:59 23.4 °F 17.8 °F 29.85 in NNW 7.6 mph 16.1 mph 79 % 0.00 in
10:04 23.3 °F 16.9 °F 29.85 in WNW 12.6 mph 22.0 mph 76 % 0.00 in
10:09 23.1 °F 16.0 °F 29.85 in WNW 6.9 mph 13.8 mph 74 % 0.00 in
10:14 23.1 °F 16.0 °F 29.84 in NW 8.3 mph 19.6 mph 74 % 0.00 in
10:19 23.1 °F 14.8 °F 29.84 in WSW 15.9 mph 24.2 mph 70 % 0.00 in
10:24 23.3 °F 14.6 °F 29.84 in WNW 10.0 mph 22.0 mph 69 % 0.00 in
10:29 23.7 °F 12.9 °F 29.83 in West 12.7 mph 26.5 mph 63 % 0.00 in
10:34 24.0 °F 11.4 °F 29.83 in WNW 13.0 mph 24.0 mph 58 % 0.00 in
10:39 24.5 °F 11.8 °F 29.83 in NW 10.0 mph 26.0 mph 58 % 0.00 in
10:44 24.9 °F 11.4 °F 29.84 in WNW 10.7 mph 16.0 mph 56 % 0.00 in
10:49 25.0 °F 8.0 °F 29.83 in WNW 13.0 mph 29.0 mph 48 % 0.00 in
10:54 24.9 °F 8.0 °F 29.83 in WNW 9.0 mph 24.0 mph 48 % 0.00 in
10:59 24.9 °F 6.5 °F 29.83 in WNW 7.8 mph 20.7 mph 45 % 0.00 in
11:04 25.1 °F 8.1 °F 29.82 in NW 9.0 mph 22.0 mph 48 % 0.00 in
11:09 25.3 °F 7.9 °F 29.82 in WNW 14.0 mph 26.0 mph 47 % 0.00 in
11:14 25.4 °F 4.9 °F 29.82 in NW 12.5 mph 23.0 mph 41 % 0.00 in
11:19 25.4 °F 5.5 °F 29.82 in WNW 12.0 mph 28.0 mph 42 % 0.00 in
11:24 25.5 °F 5.5 °F 29.83 in WNW 5.0 mph 25.0 mph 42 % 0.00 in
11:29 25.5 °F 5.0 °F 29.82 in WNW 12.0 mph 24.0 mph 41 % 0.00 in
11:34 25.5 °F 5.0 °F 29.83 in WNW 12.0 mph 29.0 mph 41 % 0.00 in
11:39 25.4 °F 4.9 °F 29.83 in WNW 14.0 mph 26.0 mph 41 % 0.00 in
11:44 25.4 °F 4.9 °F 29.83 in NW 14.0 mph 26.0 mph 41 % 0.00 in
11:49 25.4 °F 3.3 °F 29.83 in WNW 9.0 mph 25.0 mph 38 % 0.00 in
11:54 25.4 °F 4.4 °F 29.82 in WNW 6.0 mph 26.0 mph 40 % 0.00 in
11:59 25.4 °F 3.8 °F 29.83 in SW 10.0 mph 24.2 mph 39 % 0.00 in
12:04 25.3 °F 3.8 °F 29.83 in WNW 12.0 mph 24.0 mph 39 % 0.00 in
12:09 25.2 °F 2.5 °F 29.83 in WNW 12.0 mph 25.0 mph 37 % 0.00 in
12:14 25.1 °F 3.6 °F 29.83 in WNW 17.0 mph 32.0 mph 39 % 0.00 in
12:19 25.1 °F 4.1 °F 29.83 in WNW 8.0 mph 26.0 mph 40 % 0.00 in
12:24 25.0 °F 2.9 °F 29.84 in WNW 13.0 mph 28.0 mph 38 % 0.00 in
12:29 24.9 °F 2.3 °F 29.84 in WNW 12.0 mph 21.0 mph 37 % 0.00 in
12:34 24.9 °F 2.8 °F 29.84 in WNW 10.0 mph 23.0 mph 38 % 0.00 in
12:39 24.8 °F 3.3 °F 29.84 in NW 10.0 mph 20.0 mph 39 % 0.00 in
12:44 24.9 °F 2.8 °F 29.84 in WNW 9.0 mph 24.0 mph 38 % 0.00 in
12:49 25.0 °F 5.1 °F 29.85 in NW 12.0 mph 27.0 mph 42 % 0.00 in
12:54 25.0 °F 2.9 °F 29.84 in NW 10.0 mph 21.0 mph 38 % 0.00 in
12:59 25.2 °F 5.8 °F 29.84 in WNW 7.9 mph 16.0 mph 43 % 0.00 in
13:04 25.4 °F 6.5 °F 29.85 in NW 13.0 mph 28.0 mph 44 % 0.00 in
13:09 25.4 °F 4.4 °F 29.85 in NW 10.0 mph 28.0 mph 40 % 0.00 in
13:14 25.2 °F 4.2 °F 29.85 in WNW 7.0 mph 20.0 mph 40 % 0.00 in
13:19 25.1 °F 5.2 °F 29.85 in WNW 11.0 mph 20.7 mph 42 % 0.00 in
13:24 25.0 °F 3.5 °F 29.86 in NW 9.0 mph 23.0 mph 39 % 0.00 in
13:29 24.8 °F 4.4 °F 29.86 in NW 8.0 mph 25.0 mph 41 % 0.00 in
13:34 24.7 °F 4.8 °F 29.86 in NW 7.0 mph 28.0 mph 42 % 0.00 in
13:39 24.6 °F 4.8 °F 29.87 in NNW 9.0 mph 21.0 mph 42 % 0.00 in
13:44 24.6 °F 4.7 °F 29.87 in NW 9.0 mph 20.0 mph 42 % 0.00 in
13:49 24.6 °F 3.7 °F 29.87 in NW 6.0 mph 22.0 mph 40 % 0.00 in
13:54 24.5 °F 3.6 °F 29.87 in NW 10.0 mph 17.0 mph 40 % 0.00 in
13:59 24.6 °F 5.8 °F 29.88 in WNW 10.0 mph 23.0 mph 44 % 0.00 in
14:05 24.5 °F 6.2 °F 29.88 in NW 7.9 mph 19.6 mph 45 % 0.00 in
14:10 24.4 °F 8.4 °F 29.89 in NNW 13.3 mph 19.6 mph 50 % 0.00 in
14:15 24.0 °F 9.3 °F 29.89 in NNW 10.0 mph 18.4 mph 53 % 0.00 in
14:20 23.7 °F 10.7 °F 29.90 in NW 11.5 mph 18.0 mph 57 % 0.00 in
14:25 23.5 °F 10.9 °F 29.90 in NW 9.0 mph 15.0 mph 58 % 0.00 in
14:30 23.3 °F 10.3 °F 29.91 in NW 10.1 mph 17.3 mph 57 % 0.00 in
14:35 23.2 °F 8.6 °F 29.91 in WNW 4.8 mph 11.5 mph 53 % 0.00 in
14:40 23.1 °F 7.6 °F 29.91 in NNW 12.1 mph 19.0 mph 51 % 0.00 in
14:45 23.1 °F 7.2 °F 29.91 in NW 11.6 mph 15.0 mph 50 % 0.00 in
14:50 23.2 °F 6.8 °F 29.92 in NW 13.0 mph 23.0 mph 49 % 0.00 in
14:56 23.2 °F 5.0 °F 29.92 in NNW 11.4 mph 23.0 mph 45 % 0.00 in
15:01 23.1 °F 2.9 °F 29.92 in West 11.7 mph 20.7 mph 41 % 0.00 in
15:06 23.1 °F 3.4 °F 29.92 in West 12.4 mph 19.6 mph 42 % 0.00 in
15:11 23.0 °F 3.8 °F 29.93 in WSW 7.5 mph 17.3 mph 43 % 0.00 in
15:16 23.0 °F 3.3 °F 29.93 in WNW 6.9 mph 12.7 mph 42 % 0.00 in
15:21 23.0 °F 4.8 °F 29.93 in NW 10.4 mph 20.0 mph 45 % 0.00 in
15:26 23.0 °F 4.8 °F 29.94 in West 8.4 mph 12.7 mph 45 % 0.00 in
15:31 22.9 °F 2.7 °F 29.93 in WNW 5.6 mph 18.4 mph 41 % 0.00 in
15:36 22.9 °F 3.2 °F 29.93 in NW 9.3 mph 18.4 mph 42 % 0.00 in
15:41 23.0 °F 3.3 °F 29.93 in NW 7.7 mph 18.0 mph 42 % 0.00 in
15:47 23.0 °F 2.8 °F 29.94 in WSW 10.2 mph 20.7 mph 41 % 0.00 in
15:52 22.9 °F 1.6 °F 29.94 in North 8.0 mph 25.3 mph 39 % 0.00 in
15:57 22.9 °F 2.1 °F 29.94 in SW 13.1 mph 24.2 mph 40 % 0.00 in
16:02 22.9 °F 1.6 °F 29.95 in WNW 9.9 mph 21.0 mph 39 % 0.00 in
16:07 22.9 °F 1.6 °F 29.94 in NNW 11.4 mph 21.9 mph 39 % 0.00 in
16:12 22.9 °F 2.1 °F 29.94 in NNW 7.8 mph 21.9 mph 40 % 0.00 in
16:17 22.8 °F 1.5 °F 29.95 in WSW 9.6 mph 20.7 mph 39 % 0.00 in
16:22 22.7 °F 1.4 °F 29.94 in SW 11.2 mph 17.3 mph 39 % 0.00 in
16:27 22.7 °F 2.5 °F 29.95 in WNW 8.9 mph 13.8 mph 41 % 0.00 in
16:32 22.6 °F 2.4 °F 29.95 in WNW 9.2 mph 17.3 mph 41 % 0.00 in
16:37 22.6 °F 1.9 °F 29.95 in NW 11.4 mph 17.0 mph 40 % 0.00 in
16:42 22.6 °F 1.3 °F 29.96 in NW 10.2 mph 18.0 mph 39 % 0.00 in
16:48 22.6 °F 1.3 °F 29.96 in West 8.1 mph 15.0 mph 39 % 0.00 in
16:53 22.6 °F 1.9 °F 29.96 in West 9.9 mph 19.0 mph 40 % 0.00 in
16:58 22.5 °F 1.8 °F 29.97 in West 8.2 mph 16.1 mph 40 % 0.00 in
17:03 22.5 °F 0.7 °F 29.98 in NW 11.9 mph 26.5 mph 38 % 0.00 in
17:08 22.4 °F 0.0 °F 29.97 in West 10.8 mph 17.3 mph 37 % 0.00 in
17:13 22.4 °F 0.0 °F 29.97 in West 11.7 mph 21.9 mph 37 % 0.00 in
17:18 22.4 °F 1.7 °F 29.98 in WNW 11.0 mph 19.6 mph 40 % 0.00 in
17:23 22.3 °F 1.1 °F 29.99 in WNW 11.7 mph 19.6 mph 39 % 0.00 in
17:28 22.3 °F 1.6 °F 29.98 in West 8.3 mph 24.2 mph 40 % 0.00 in
17:33 22.2 °F 1.5 °F 29.99 in WNW 11.9 mph 21.9 mph 40 % 0.00 in
17:38 22.2 °F 1.5 °F 29.99 in WNW 12.5 mph 28.8 mph 40 % 0.00 in
17:43 22.2 °F 2.0 °F 29.99 in WSW 8.5 mph 19.6 mph 41 % 0.00 in
17:49 22.2 °F 1.5 °F 30.00 in NW 12.5 mph 18.0 mph 40 % 0.00 in
17:54 22.2 °F 2.0 °F 30.01 in WNW 12.7 mph 26.5 mph 41 % 0.00 in
17:59 22.2 °F 0.4 °F 30.00 in West 11.2 mph 23.0 mph 38 % 0.00 in
18:04 22.2 °F 2.0 °F 30.00 in WSW 8.5 mph 19.6 mph 41 % 0.00 in
18:09 22.2 °F 2.0 °F 30.00 in WNW 11.5 mph 18.4 mph 41 % 0.00 in
18:14 22.2 °F 2.0 °F 30.01 in SSW 7.6 mph 15.0 mph 41 % 0.00 in
18:19 22.3 °F 2.1 °F 30.01 in WNW 8.7 mph 26.5 mph 41 % 0.00 in
18:24 22.2 °F 2.0 °F 30.01 in West 9.4 mph 14.0 mph 41 % 0.00 in
18:29 22.2 °F 2.0 °F 30.01 in WSW 10.2 mph 20.7 mph 41 % 0.00 in
18:34 22.2 °F 2.6 °F 30.01 in West 14.0 mph 26.0 mph 42 % 0.00 in
18:39 22.3 °F 2.1 °F 30.02 in West 10.0 mph 20.0 mph 41 % 0.00 in
18:44 22.2 °F 1.0 °F 30.02 in WSW 9.0 mph 24.0 mph 39 % 0.00 in
18:49 22.2 °F 2.0 °F 30.02 in West 10.0 mph 24.0 mph 41 % 0.00 in
18:54 22.2 °F 2.5 °F 30.02 in West 12.0 mph 20.0 mph 42 % 0.00 in
18:59 22.2 °F 3.6 °F 30.03 in WSW 11.9 mph 18.4 mph 44 % 0.00 in
19:05 22.3 °F 3.7 °F 30.03 in WSW 8.0 mph 20.7 mph 44 % 0.00 in
19:10 22.3 °F 2.6 °F 30.03 in WSW 11.7 mph 20.7 mph 42 % 0.00 in
19:15 22.3 °F 2.6 °F 30.03 in SW 12.8 mph 21.9 mph 42 % 0.00 in
19:20 22.3 °F 2.6 °F 30.03 in WSW 13.8 mph 23.0 mph 42 % 0.00 in
19:25 22.2 °F 2.6 °F 30.03 in WNW 10.6 mph 20.7 mph 42 % 0.00 in
19:30 22.1 °F 2.5 °F 30.03 in WNW 10.7 mph 19.6 mph 42 % 0.00 in
19:35 22.1 °F 3.0 °F 30.04 in West 10.0 mph 16.0 mph 43 % 0.00 in
19:40 22.0 °F 2.9 °F 30.04 in West 12.2 mph 21.9 mph 43 % 0.00 in
19:45 22.0 °F 3.4 °F 30.04 in WNW 11.9 mph 18.4 mph 44 % 0.00 in
19:50 22.1 °F 3.5 °F 30.04 in WNW 15.4 mph 27.0 mph 44 % 0.00 in
19:56 22.1 °F 3.5 °F 30.04 in West 11.4 mph 26.5 mph 44 % 0.00 in
20:01 22.1 °F 3.5 °F 30.03 in WSW 14.2 mph 22.0 mph 44 % 0.00 in
20:06 22.1 °F 3.5 °F 30.03 in WSW 9.9 mph 20.7 mph 44 % 0.00 in
20:11 22.1 °F 4.0 °F 30.04 in WNW 5.4 mph 12.7 mph 45 % 0.00 in
20:16 22.1 °F 3.0 °F 30.04 in WSW 14.1 mph 24.2 mph 43 % 0.00 in
20:21 22.0 °F 3.4 °F 30.04 in SW 13.7 mph 25.3 mph 44 % 0.00 in
20:26 22.1 °F 3.5 °F 30.04 in WSW 13.8 mph 22.0 mph 44 % 0.00 in
20:31 22.1 °F 4.4 °F 30.05 in WNW 7.9 mph 13.8 mph 46 % 0.00 in
20:36 22.1 °F 4.0 °F 30.04 in WSW 11.1 mph 23.0 mph 45 % 0.00 in
20:41 22.1 °F 4.4 °F 30.04 in WNW 6.6 mph 20.7 mph 46 % 0.00 in
20:46 22.1 °F 4.0 °F 30.05 in WSW 13.7 mph 22.0 mph 45 % 0.00 in
20:52 22.0 °F 3.4 °F 30.05 in WSW 12.8 mph 28.8 mph 44 % 0.00 in
20:57 22.0 °F 3.9 °F 30.05 in SW 9.2 mph 19.6 mph 45 % 0.00 in
21:02 22.0 °F 4.3 °F 30.05 in West 9.4 mph 16.1 mph 46 % 0.00 in
21:07 22.0 °F 4.8 °F 30.06 in WSW 10.1 mph 16.0 mph 47 % 0.00 in
21:12 22.0 °F 4.8 °F 30.05 in WNW 13.9 mph 24.0 mph 47 % 0.00 in
21:17 22.0 °F 4.8 °F 30.05 in West 7.0 mph 7.0 mph 47 % 0.00 in
21:22 22.0 °F 4.8 °F 30.05 in WSW 14.5 mph 27.0 mph 47 % 0.00 in
21:27 22.0 °F 4.3 °F 30.06 in Calm   11.5 mph 46 % 0.00 in
21:32 21.8 °F 3.7 °F 30.07 in Calm     45 % 0.00 in
21:37 21.8 °F 4.2 °F 30.06 in NW 4.7 mph 12.0 mph 46 % 0.00 in
21:42 21.8 °F 4.2 °F 30.06 in WNW 10.4 mph 15.0 mph 46 % 0.00 in
21:47 21.8 °F 4.6 °F 30.06 in WNW 13.7 mph 27.0 mph 47 % 0.00 in
21:53 21.8 °F 5.1 °F 30.06 in WSW 9.1 mph 18.4 mph 48 % 0.00 in
21:58 21.9 °F 5.2 °F 30.06 in SW 10.5 mph 31.1 mph 48 % 0.00 in
22:03 21.9 °F 5.6 °F 30.06 in WSW 12.8 mph 23.0 mph 49 % 0.00 in
22:08 21.8 °F 5.1 °F 30.06 in West 12.4 mph 24.2 mph 48 % 0.00 in
22:13 21.8 °F 5.5 °F 30.07 in West 8.1 mph 17.3 mph 49 % 0.00 in
22:18 21.7 °F 5.9 °F 30.07 in WNW 9.9 mph 19.6 mph 50 % 0.00 in
22:23 21.7 °F 5.5 °F 30.07 in WSW 10.2 mph 20.7 mph 49 % 0.00 in
22:28 21.7 °F 5.9 °F 30.07 in West 14.0 mph 24.0 mph 50 % 0.00 in
22:33 21.6 °F 5.4 °F 30.08 in West 14.5 mph 19.6 mph 49 % 0.00 in
22:38 21.6 °F 4.9 °F 30.07 in West 11.6 mph 29.9 mph 48 % 0.00 in
22:44 21.6 °F 5.8 °F 30.08 in West 4.1 mph 13.0 mph 50 % 0.00 in
22:49 21.6 °F 5.8 °F 30.07 in WNW 9.1 mph 20.7 mph 50 % 0.00 in
22:54 21.6 °F 5.4 °F 30.08 in WNW 11.3 mph 25.3 mph 49 % 0.00 in
22:59 21.5 °F 5.7 °F 30.08 in NW 10.2 mph 19.0 mph 50 % 0.00 in
23:04 21.5 °F 5.3 °F 30.09 in WNW 8.4 mph 17.3 mph 49 % 0.00 in
23:09 21.5 °F 6.1 °F 30.09 in WSW 12.3 mph 20.7 mph 51 % 0.00 in
23:14 21.5 °F 6.1 °F 30.09 in West 13.3 mph 19.6 mph 51 % 0.00 in
23:19 21.5 °F 6.1 °F 30.09 in SSW 11.5 mph 20.7 mph 51 % 0.00 in
23:24 21.5 °F 6.1 °F 30.09 in WSW 10.5 mph 19.6 mph 51 % 0.00 in
23:29 21.5 °F 6.6 °F 30.09 in WNW 9.7 mph 13.8 mph 52 % 0.00 in
23:34 21.4 °F 6.5 °F 30.09 in West 15.0 mph 25.0 mph 52 % 0.00 in
23:39 21.4 °F 6.9 °F 30.09 in West 7.0 mph 15.0 mph 53 % 0.00 in
23:44 21.4 °F 7.3 °F 30.10 in West 9.0 mph 20.0 mph 54 % 0.00 in
23:49 21.4 °F 7.3 °F 30.10 in West 7.0 mph 22.0 mph 54 % 0.00 in
23:54 21.4 °F 7.3 °F 30.10 in West 9.0 mph 23.0 mph 54 % 0.00 in
23:59 21.3 °F 6.8 °F 30.11 in West 10.7 mph 18.4 mph 53 % 0.00 in
Crab Meadow Weather
Compliments of Weather Underground - 3 mb

Script developed by  Jim McMurry - jmcmurry@mwt.net Adapted for the template by  Wim van der Kuil - Leuven-Template.eu

Extremes: The highest temperature ever recorded in the United States was 134 degrees F at Greenland Ranch in Death Valley, California.